Aeroporto :
LOGIN :

Iscrizione | Disclaimer

   EN    FR    IT 

 










Sommario :    VFR   VFR Marginale   IFR   IFR Intensivo   IFR Molto Intensivo
Visibilità : 
Base nubi : 
>= 8 km
>= 3000ft
5 / 8 km
1000 / 3000 ft
1500m / 5 km
500 / 1000 ft
800 / 1500m
200 / 500 ft
< 800m
< 200 ft
Simboli :   Temporali  Nebbia  Neve Forte  Precipitazioni Forti  Vento > 20 kt
SIGMETs :   Varie  Temporali  Ghiacco  Turbolenza  Onda orograficha  Ceneri Vulcaniche






- Altitudine del aeroporto : 302 ft
- Codice IATA : CGN


EDDK - Cologne Bonn

ULTIMO METAR :
  • 182220Z AUTO 10003KT 060V200 CAVOK 19/15 Q1021 NOSIG

METARs OBSOLETI :
  • 182150Z AUTO 09004KT 060V130 CAVOK 20/15 Q1021 NOSIG
  • 182120Z AUTO 09004KT CAVOK 20/16 Q1021 NOSIG
  • 182050Z AUTO 07005KT CAVOK 20/16 Q1021 NOSIG
  • 182020Z AUTO 09004KT CAVOK 20/16 Q1021 NOSIG
  • 181950Z AUTO 07004KT CAVOK 21/16 Q1021
  • 181920Z AUTO 09004KT CAVOK 22/17 Q1021 NOSIG
  • 181850Z AUTO 07003KT CAVOK 24/17 Q1021 NOSIG
  • 181820Z AUTO 07004KT CAVOK 27/15 Q1021 NOSIG
  • 181750Z AUTO 07004KT CAVOK 27/15 Q1020 NOSIG

TAF TAF EDDK
Valido dal 18 a 18 ore il 20 a 00 ore UTC


181700Z 1818/1924 VRB03KT CAVOK



MetMap, La meteo Aeronautica in un colpo d'occhio ! - Copyright ORBIFLY Dicembre 2007 - Disclaimer

ORBIFLY MET'MAP TEAM :

Programmazione e sviluppo : Alexandra Zaïnal
Concezione : Baudouin d'Aumeries
Supporto tecnico e logistico : Manuel Goepfert
Aiuto : Marc-Olivier Méhu
Aiuto per la traduzione : Arnaldo La Scala




FONTI E CREDITI :

   NOAA